createdAt,value
2022-12-04T00:01:50.605Z,12.63
2022-12-04T00:04:18.172Z,13.90
2022-12-04T00:06:45.744Z,10.88
2022-12-04T00:09:16.182Z,11.70
2022-12-04T00:11:43.937Z,13.45
2022-12-04T00:14:11.553Z,13.43
2022-12-04T00:16:39.227Z,11.60
2022-12-04T00:19:06.861Z,12.23
2022-12-04T00:21:34.451Z,13.80
2022-12-04T00:24:02.102Z,13.93
2022-12-04T00:26:31.167Z,11.35
2022-12-04T00:28:58.901Z,12.77
2022-12-04T00:31:27.592Z,12.15
2022-12-04T00:33:55.232Z,13.13
2022-12-04T00:36:24.120Z,13.70
2022-12-04T00:38:51.990Z,12.57
2022-12-04T00:41:21.206Z,12.88
2022-12-04T00:43:48.811Z,13.85
2022-12-04T00:46:16.493Z,11.77
2022-12-04T00:48:44.317Z,12.02
2022-12-04T00:51:13.614Z,14.60
2022-12-04T00:53:41.227Z,12.50
2022-12-04T00:56:10.174Z,12.70
2022-12-04T00:58:38.109Z,11.38
2022-12-04T01:01:07.319Z,12.07
2022-12-04T01:03:35.541Z,12.55
2022-12-04T01:06:03.405Z,14.88
2022-12-04T01:08:31.229Z,12.23
2022-12-04T01:10:58.857Z,12.25
2022-12-04T01:13:26.997Z,12.73
2022-12-04T01:15:54.572Z,13.68
2022-12-04T01:18:23.393Z,13.15
2022-12-04T01:20:52.571Z,11.82
2022-12-04T01:23:20.597Z,13.27
2022-12-04T01:25:55.360Z,12.30
2022-12-04T01:28:23.372Z,12.13
2022-12-04T01:31:03.979Z,13.05
2022-12-04T01:33:32.396Z,9.60
2022-12-04T01:36:00.912Z,13.77
2022-12-04T01:38:28.881Z,13.35
2022-12-04T01:40:56.827Z,12.80
2022-12-04T01:43:24.840Z,13.93
2022-12-04T01:45:56.575Z,12.70
2022-12-04T01:48:24.248Z,13.18
2022-12-04T01:50:54.087Z,12.88
2022-12-04T01:53:21.838Z,12.98
2022-12-04T01:55:49.369Z,12.50
2022-12-04T01:58:19.687Z,13.55
2022-12-04T02:00:51.649Z,11.40
2022-12-04T02:03:19.624Z,11.90
2022-12-04T02:05:47.243Z,12.07
2022-12-04T02:08:14.867Z,13.20
2022-12-04T02:10:46.114Z,12.70
2022-12-04T02:15:47.084Z,11.35
2022-12-04T02:18:36.750Z,12.75
2022-12-04T02:21:14.813Z,12.45
2022-12-04T02:23:51.471Z,12.43
2022-12-04T02:26:39.739Z,12.75
2022-12-04T02:29:20.343Z,12.15
2022-12-04T02:31:52.525Z,13.77
2022-12-04T02:34:38.467Z,11.85
2022-12-04T02:37:09.434Z,12.05
2022-12-04T02:39:41.338Z,13.65
2022-12-04T02:42:13.653Z,12.43
2022-12-04T02:44:47.333Z,12.18
2022-12-04T02:47:17.268Z,13.30
2022-12-04T02:49:50.886Z,13.98
2022-12-04T02:52:21.154Z,13.10
2022-12-04T02:54:51.920Z,9.07
2022-12-04T02:57:25.604Z,13.13
2022-12-04T02:59:54.528Z,12.80
2022-12-04T03:02:25.186Z,13.45
2022-12-04T03:04:55.123Z,12.93
2022-12-04T03:07:28.851Z,12.90
2022-12-04T03:09:58.835Z,12.38
2022-12-04T03:12:35.608Z,11.50
2022-12-04T03:15:05.563Z,12.77
2022-12-04T03:17:54.476Z,14.73
2022-12-04T03:20:22.522Z,12.38
2022-12-04T03:22:52.416Z,13.63
2022-12-04T03:25:20.091Z,13.15
2022-12-04T03:27:54.809Z,13.40
2022-12-04T03:30:25.270Z,11.07
2022-12-04T03:32:57.577Z,12.60
2022-12-04T03:35:32.044Z,13.02
2022-12-04T03:38:02.549Z,14.10
2022-12-04T03:40:36.228Z,12.90
2022-12-04T03:43:09.524Z,11.85
2022-12-04T03:45:52.560Z,13.68
2022-12-04T03:48:25.712Z,13.27
2022-12-04T03:50:56.751Z,12.45
2022-12-04T03:53:28.706Z,12.25
2022-12-04T03:56:02.691Z,12.80
2022-12-04T03:58:32.134Z,13.13
2022-12-04T04:01:00.737Z,12.20
2022-12-04T04:03:34.262Z,13.60
2022-12-04T04:06:13.249Z,13.93
2022-12-04T04:08:42.149Z,12.48
2022-12-04T04:11:09.676Z,13.40
2022-12-04T04:14:12.081Z,13.05
2022-12-04T04:17:00.643Z,14.15
2022-12-04T04:19:49.431Z,12.68
2022-12-04T04:22:36.948Z,13.10
2022-12-04T04:25:24.697Z,11.68
2022-12-04T04:27:53.510Z,12.05
2022-12-04T04:30:21.609Z,12.20
2022-12-04T04:32:53.524Z,14.05
2022-12-04T04:35:27.144Z,12.48
2022-12-04T04:37:57.416Z,12.68
2022-12-04T04:40:25.037Z,13.20
2022-12-04T04:42:58.708Z,12.73
2022-12-04T04:45:46.473Z,13.85
2022-12-04T04:48:24.261Z,13.80
2022-12-04T04:50:52.676Z,13.88
2022-12-04T04:53:22.396Z,12.98
2022-12-04T04:55:50.503Z,13.73
2022-12-04T04:58:19.470Z,13.13
2022-12-04T05:00:51.863Z,12.50
2022-12-04T05:03:19.473Z,14.75
2022-12-04T05:05:47.000Z,14.68
2022-12-04T05:08:14.601Z,12.73
2022-12-04T05:10:42.270Z,13.93
2022-12-04T05:13:10.736Z,12.85
2022-12-04T05:15:38.277Z,12.98
2022-12-04T05:18:06.133Z,12.70
2022-12-04T05:20:33.879Z,14.55
2022-12-04T05:23:01.455Z,13.23
2022-12-04T05:25:29.136Z,12.10
2022-12-04T05:27:56.649Z,14.10
2022-12-04T05:30:24.308Z,12.05
2022-12-04T05:32:51.896Z,12.65
2022-12-04T05:35:19.352Z,12.77
2022-12-04T05:37:47.356Z,13.00
2022-12-04T05:40:15.023Z,13.15
2022-12-04T05:42:42.567Z,13.32
2022-12-04T05:45:10.236Z,13.35
2022-12-04T05:47:45.914Z,13.68
2022-12-04T05:50:14.081Z,12.57
2022-12-04T05:52:41.595Z,12.65
2022-12-04T05:55:09.141Z,13.55
2022-12-04T05:57:36.651Z,11.82
2022-12-04T06:00:05.036Z,14.63
2022-12-04T06:02:38.807Z,13.80
2022-12-04T06:05:06.627Z,13.18
2022-12-04T06:07:34.153Z,12.15
2022-12-04T06:10:01.707Z,12.50
2022-12-04T06:12:30.336Z,14.93
2022-12-04T06:14:57.963Z,11.80
2022-12-04T06:17:25.576Z,13.75
2022-12-04T06:19:56.415Z,14.45
2022-12-04T06:24:51.726Z,15.35
2022-12-04T06:27:28.080Z,14.75
2022-12-04T06:29:56.267Z,15.35
2022-12-04T06:32:23.989Z,16.40
2022-12-04T06:34:55.000Z,14.38
2022-12-04T06:37:24.131Z,16.08
2022-12-04T06:39:51.678Z,15.00
2022-12-04T06:42:19.249Z,17.83
2022-12-04T06:44:46.965Z,17.48
2022-12-04T06:47:14.617Z,15.98
2022-12-04T06:49:42.228Z,14.98
2022-12-04T06:52:09.841Z,15.38
2022-12-04T06:54:37.428Z,16.80
2022-12-04T06:57:04.943Z,16.95
2022-12-04T06:59:33.860Z,17.17
2022-12-04T07:02:01.404Z,16.70
2022-12-04T07:04:29.038Z,17.20
2022-12-04T07:06:56.570Z,16.70
2022-12-04T07:09:24.116Z,16.38
2022-12-04T07:11:52.936Z,15.68
2022-12-04T07:14:20.502Z,17.23
2022-12-04T07:16:48.165Z,16.88
2022-12-04T07:19:15.685Z,16.85
2022-12-04T07:21:43.817Z,17.42
2022-12-04T07:24:15.653Z,15.90
2022-12-04T07:26:43.536Z,17.02
2022-12-04T07:29:11.084Z,17.90
2022-12-04T07:31:38.858Z,20.13
2022-12-04T07:34:06.723Z,17.00
2022-12-04T07:36:34.247Z,18.40
2022-12-04T07:39:01.865Z,16.60
2022-12-04T07:41:29.369Z,16.95
2022-12-04T07:43:56.954Z,17.65
2022-12-04T07:46:27.675Z,16.27
2022-12-04T07:48:56.616Z,16.02
2022-12-04T07:51:27.196Z,18.42
2022-12-04T07:53:55.525Z,12.43
2022-12-04T07:56:22.974Z,16.50
2022-12-04T07:58:50.490Z,19.20
2022-12-04T08:01:26.546Z,16.77
2022-12-04T08:03:55.999Z,18.83
2022-12-04T08:06:24.647Z,18.20
2022-12-04T08:08:53.759Z,18.23
2022-12-04T08:11:24.691Z,16.67
2022-12-04T08:14:01.018Z,17.90
2022-12-04T08:16:32.730Z,17.40
2022-12-04T08:19:00.953Z,18.50
2022-12-04T08:21:29.449Z,17.75
2022-12-04T08:23:59.414Z,17.60
2022-12-04T08:26:28.466Z,17.60
2022-12-04T08:28:56.961Z,16.98
2022-12-04T08:31:25.862Z,15.77
2022-12-04T08:33:54.940Z,17.80
2022-12-04T08:36:22.686Z,19.45
2022-12-04T08:38:51.032Z,17.05
2022-12-04T08:41:20.857Z,16.15
2022-12-04T08:43:48.846Z,17.45
2022-12-04T08:46:17.447Z,17.15
2022-12-04T08:48:45.920Z,17.17
2022-12-04T08:51:18.056Z,18.10
2022-12-04T08:53:46.048Z,16.95
2022-12-04T08:56:13.682Z,17.67
2022-12-04T08:58:43.595Z,17.42
2022-12-04T09:01:12.448Z,18.65
2022-12-04T09:03:40.456Z,16.45
2022-12-04T09:06:09.166Z,19.67
2022-12-04T09:11:27.758Z,16.95
2022-12-04T09:14:03.052Z,18.33
2022-12-04T09:16:30.895Z,17.83
2022-12-04T09:18:58.960Z,15.77
2022-12-04T09:21:26.666Z,17.73
2022-12-04T09:23:54.321Z,18.48
2022-12-04T09:26:24.243Z,19.67
2022-12-04T09:28:52.470Z,17.80
2022-12-04T09:31:24.564Z,17.83
2022-12-04T09:33:52.304Z,18.38
2022-12-04T09:36:20.060Z,17.63
2022-12-04T09:38:49.079Z,15.88
2022-12-04T09:41:35.608Z,18.20
2022-12-04T09:44:10.046Z,18.25
2022-12-04T09:46:45.485Z,18.63
2022-12-04T09:49:33.319Z,17.17
2022-12-04T09:52:03.907Z,17.77
2022-12-04T09:54:36.083Z,17.30
2022-12-04T09:57:19.017Z,17.77
2022-12-04T09:59:46.900Z,18.10
2022-12-04T10:02:33.476Z,18.13
2022-12-04T10:05:01.679Z,17.02
2022-12-04T10:07:34.948Z,17.17
2022-12-04T10:10:21.547Z,19.25
2022-12-04T10:12:49.133Z,18.33
2022-12-04T10:15:22.828Z,16.67
2022-12-04T10:17:58.787Z,18.48
2022-12-04T10:20:30.929Z,16.95
2022-12-04T10:23:25.172Z,16.38
2022-12-04T10:25:54.693Z,14.18
2022-12-04T10:28:37.751Z,14.02
2022-12-04T10:31:06.851Z,14.68
2022-12-04T10:33:46.751Z,13.27
2022-12-04T10:36:25.965Z,15.65
2022-12-04T10:38:56.328Z,14.07
2022-12-04T10:41:36.129Z,11.47
2022-12-04T10:44:03.751Z,13.20
2022-12-04T10:46:33.754Z,16.48
2022-12-04T10:49:01.441Z,14.32
2022-12-04T10:51:34.477Z,15.20
2022-12-04T10:54:02.401Z,14.00
2022-12-04T10:56:30.004Z,15.15
2022-12-04T10:58:58.925Z,15.05
2022-12-04T11:01:34.835Z,16.50
2022-12-04T11:04:08.812Z,16.08
2022-12-04T11:06:36.783Z,14.50
2022-12-04T11:11:46.535Z,14.75
2022-12-04T11:14:16.897Z,15.32
2022-12-04T11:16:45.870Z,14.82
2022-12-04T11:19:26.704Z,13.60
2022-12-04T11:21:56.159Z,14.18
2022-12-04T11:24:32.717Z,16.00
2022-12-04T11:27:01.795Z,16.38
2022-12-04T11:29:34.651Z,19.65
2022-12-04T11:32:07.558Z,20.00
2022-12-04T11:34:40.159Z,21.10
2022-12-04T11:37:19.233Z,20.17
2022-12-04T11:39:47.267Z,18.88
2022-12-04T11:42:17.002Z,20.08
2022-12-04T11:44:54.123Z,22.30
2022-12-04T11:47:23.248Z,21.60
2022-12-04T11:50:11.521Z,21.67
2022-12-04T11:52:46.072Z,22.40
2022-12-04T11:55:29.199Z,20.85
2022-12-04T11:58:20.275Z,20.02
2022-12-04T12:01:01.877Z,19.95
2022-12-04T12:03:41.816Z,20.90
2022-12-04T12:06:30.855Z,21.20
2022-12-04T12:09:13.913Z,21.15
2022-12-04T12:11:47.721Z,19.88
2022-12-04T12:14:34.259Z,22.65
2022-12-04T12:17:08.313Z,20.75
2022-12-04T12:19:56.281Z,21.23
2022-12-04T12:22:26.320Z,35.05
2022-12-04T12:25:12.796Z,29.42
2022-12-04T12:27:52.880Z,22.10
2022-12-04T12:30:22.203Z,20.17
2022-12-04T12:32:53.610Z,21.83
2022-12-04T12:35:32.771Z,21.85
2022-12-04T12:38:04.529Z,21.92
2022-12-04T12:40:42.466Z,21.25
2022-12-04T12:43:24.782Z,15.48
2022-12-04T12:45:57.887Z,22.98
2022-12-04T12:48:28.956Z,21.50
2022-12-04T12:51:22.015Z,20.80
2022-12-04T12:53:51.341Z,20.88
2022-12-04T12:56:19.813Z,20.85
2022-12-04T12:58:54.682Z,21.85
2022-12-04T13:02:02.240Z,19.67
2022-12-04T13:04:39.123Z,22.05
2022-12-04T13:07:06.861Z,22.65
2022-12-04T13:09:38.306Z,21.05
2022-12-04T13:12:18.175Z,21.10
2022-12-04T13:14:48.986Z,20.67
2022-12-04T13:20:09.530Z,20.98
2022-12-04T13:22:37.719Z,20.80
2022-12-04T13:25:14.292Z,21.35
2022-12-04T13:27:51.142Z,22.67
2022-12-04T13:30:24.275Z,23.75
2022-12-04T13:33:18.458Z,20.25
2022-12-04T13:38:38.679Z,22.15
2022-12-04T13:41:15.641Z,19.70
2022-12-04T13:43:44.903Z,21.13
2022-12-04T13:46:28.186Z,21.77
2022-12-04T13:48:56.227Z,20.17
2022-12-04T13:51:36.947Z,19.67
2022-12-04T13:54:25.210Z,20.23
2022-12-04T13:56:57.034Z,17.67
2022-12-04T13:59:35.698Z,18.02
2022-12-04T14:02:22.532Z,19.98
2022-12-04T14:04:58.060Z,19.33
2022-12-04T14:07:27.960Z,17.23
2022-12-04T14:12:43.886Z,18.88
2022-12-04T14:19:09.540Z,18.70
2022-12-04T14:21:45.082Z,16.08
2022-12-04T14:24:30.376Z,20.23
2022-12-04T14:27:14.060Z,16.15
2022-12-04T14:30:00.478Z,18.73
2022-12-04T14:32:32.927Z,18.85
2022-12-04T14:35:00.879Z,17.85
2022-12-04T14:37:32.088Z,20.20
2022-12-04T14:42:33.917Z,15.25
2022-12-04T14:45:08.425Z,17.02
2022-12-04T14:53:22.731Z,18.10
2022-12-04T14:56:07.274Z,16.67
2022-12-04T14:58:51.971Z,15.13
2022-12-04T15:01:32.264Z,16.50
2022-12-04T15:04:19.840Z,17.88
2022-12-04T15:06:49.690Z,16.00
2022-12-04T15:09:36.929Z,16.10
2022-12-04T15:12:33.574Z,16.42
2022-12-04T15:15:39.572Z,16.48
2022-12-04T15:18:12.444Z,16.13
2022-12-04T15:20:46.876Z,17.98
2022-12-04T15:23:20.078Z,18.50
2022-12-04T15:25:51.525Z,19.75
2022-12-04T15:28:31.114Z,17.85
2022-12-04T15:31:00.953Z,18.05
2022-12-04T15:33:34.742Z,18.35
2022-12-04T15:38:39.573Z,21.30
2022-12-04T15:41:10.307Z,20.27
2022-12-04T15:44:04.107Z,19.17
2022-12-04T15:46:33.578Z,16.80
2022-12-04T15:49:25.748Z,18.02
2022-12-04T15:52:07.499Z,18.60
2022-12-04T15:54:38.426Z,20.20
2022-12-04T15:57:08.896Z,19.77
2022-12-04T15:59:49.288Z,19.30
2022-12-04T16:02:49.394Z,20.65
2022-12-04T16:05:41.002Z,18.55
2022-12-04T16:08:31.874Z,17.20
2022-12-04T16:11:25.906Z,16.45
2022-12-04T16:14:16.804Z,15.95
2022-12-04T16:16:53.257Z,19.42
2022-12-04T16:19:39.552Z,23.40
2022-12-04T16:22:20.357Z,18.27
2022-12-04T16:24:48.485Z,17.90
2022-12-04T16:27:17.538Z,23.45
2022-12-04T16:29:49.665Z,17.70
2022-12-04T16:32:27.176Z,16.50
2022-12-04T16:34:55.521Z,16.67
2022-12-04T16:37:25.833Z,17.05
2022-12-04T16:39:53.998Z,16.40
2022-12-04T16:42:23.675Z,18.35
2022-12-04T16:44:56.917Z,16.65
2022-12-04T16:47:33.327Z,18.25
2022-12-04T16:50:09.832Z,17.30
2022-12-04T16:52:45.609Z,22.25
2022-12-04T16:55:32.163Z,17.88
2022-12-04T16:57:59.976Z,18.48
2022-12-04T17:00:29.931Z,17.13
2022-12-04T17:02:57.596Z,18.20
2022-12-04T17:05:29.132Z,17.63
2022-12-04T17:07:56.946Z,18.85
2022-12-04T17:10:24.695Z,18.00
2022-12-04T17:12:53.432Z,18.63
2022-12-04T17:15:21.079Z,19.52
2022-12-04T17:17:49.780Z,18.92
2022-12-04T17:20:18.610Z,19.23
2022-12-04T17:22:46.277Z,19.38
2022-12-04T17:25:14.286Z,20.38
2022-12-04T17:27:41.823Z,27.27
2022-12-04T17:30:10.220Z,20.02
2022-12-04T17:32:48.033Z,20.35
2022-12-04T17:35:16.126Z,21.30
2022-12-04T17:37:43.820Z,20.65
2022-12-04T17:40:15.879Z,21.40
2022-12-04T17:42:43.717Z,22.73
2022-12-04T17:45:12.033Z,21.85
2022-12-04T17:47:39.714Z,20.55
2022-12-04T17:50:07.644Z,22.42
2022-12-04T17:52:35.340Z,22.85
2022-12-04T17:55:02.997Z,21.25
2022-12-04T17:57:30.703Z,22.42
2022-12-04T18:00:00.830Z,22.13
2022-12-04T18:02:30.568Z,21.80
2022-12-04T18:04:58.265Z,21.92
2022-12-04T18:07:25.965Z,21.15
2022-12-04T18:09:53.637Z,20.85
2022-12-04T18:12:21.246Z,18.83
2022-12-04T18:14:49.034Z,20.90
2022-12-04T18:17:17.539Z,21.08
2022-12-04T18:19:45.070Z,19.25
2022-12-04T18:22:12.599Z,20.70
2022-12-04T18:24:40.203Z,22.30
2022-12-04T18:27:08.062Z,21.52
2022-12-04T18:29:36.128Z,22.17
2022-12-04T18:32:03.758Z,23.17
2022-12-04T18:34:31.359Z,27.92
2022-12-04T18:36:58.938Z,27.05
2022-12-04T18:39:27.305Z,24.20
2022-12-04T18:41:56.895Z,24.50
2022-12-04T18:44:25.061Z,23.77
2022-12-04T18:46:55.675Z,21.45
2022-12-04T18:49:24.240Z,24.02
2022-12-04T18:51:51.798Z,23.15
2022-12-04T18:54:21.710Z,26.85
2022-12-04T18:56:55.397Z,20.42
2022-12-04T18:59:24.733Z,24.40
2022-12-04T19:01:53.177Z,21.33
2022-12-04T19:04:22.142Z,22.45
2022-12-04T19:06:57.704Z,19.17
2022-12-04T19:10:02.597Z,20.55
2022-12-04T19:12:16.981Z,21.38
2022-12-04T19:14:46.726Z,18.65
2022-12-04T19:17:15.049Z,20.73
2022-12-04T19:19:42.584Z,18.75
2022-12-04T19:22:10.417Z,18.92
2022-12-04T19:24:45.843Z,21.05
2022-12-04T19:27:16.119Z,19.25
2022-12-04T19:29:47.895Z,19.57
2022-12-04T19:32:17.813Z,20.55
2022-12-04T19:34:45.591Z,21.63
2022-12-04T19:37:13.120Z,21.08
2022-12-04T19:39:40.794Z,22.48
2022-12-04T19:42:09.796Z,21.52
2022-12-04T19:44:53.280Z,21.83
2022-12-04T19:47:20.998Z,21.30
2022-12-04T19:49:48.660Z,21.30
2022-12-04T19:52:16.544Z,21.13
2022-12-04T19:54:44.292Z,22.77
2022-12-04T19:57:14.695Z,22.95
2022-12-04T19:59:46.260Z,15.02
2022-12-04T20:02:25.560Z,22.30
2022-12-04T20:04:55.637Z,25.30
2022-12-04T20:07:23.254Z,22.52
2022-12-04T20:09:55.075Z,21.83
2022-12-04T20:12:23.227Z,21.80
2022-12-04T20:14:50.890Z,24.77
2022-12-04T20:17:18.424Z,25.60
2022-12-04T20:19:46.058Z,26.42
2022-12-04T20:22:13.622Z,25.77
2022-12-04T20:24:41.170Z,27.70
2022-12-04T20:27:08.746Z,26.75
2022-12-04T20:29:36.413Z,26.38
2022-12-04T20:32:03.970Z,26.20
2022-12-04T20:34:31.554Z,27.40
2022-12-04T20:36:59.256Z,25.65
2022-12-04T20:39:29.743Z,24.80
2022-12-04T20:41:57.458Z,25.40
2022-12-04T20:44:25.006Z,24.08
2022-12-04T20:46:53.301Z,24.88
2022-12-04T20:49:22.380Z,24.17
2022-12-04T20:51:51.241Z,24.35
2022-12-04T20:54:20.373Z,24.05
2022-12-04T20:56:48.985Z,25.20
2022-12-04T20:59:18.044Z,23.75
2022-12-04T21:01:46.058Z,23.55
2022-12-04T21:04:13.933Z,23.33
2022-12-04T21:06:42.001Z,21.52
2022-12-04T21:09:12.468Z,22.35
2022-12-04T21:11:41.762Z,22.87
2022-12-04T21:14:34.478Z,23.17
2022-12-04T21:17:02.329Z,21.73
2022-12-04T21:19:29.863Z,23.13
2022-12-04T21:21:57.444Z,23.88
2022-12-04T21:24:30.342Z,26.50
2022-12-04T21:26:57.873Z,22.95
2022-12-04T21:29:25.484Z,25.63
2022-12-04T21:31:53.127Z,23.98
2022-12-04T21:34:20.866Z,24.17
2022-12-04T21:36:48.601Z,23.73
2022-12-04T21:39:16.441Z,22.73
2022-12-04T21:42:02.672Z,19.90
2022-12-04T21:44:30.441Z,19.63
2022-12-04T21:46:58.063Z,18.27
2022-12-04T21:49:25.751Z,18.67
2022-12-04T21:51:58.169Z,15.13
2022-12-04T21:54:29.136Z,15.95
2022-12-04T21:56:57.296Z,15.83
2022-12-04T21:59:25.602Z,15.05
2022-12-04T22:01:53.861Z,15.88
2022-12-04T22:04:21.969Z,17.10
2022-12-04T22:06:49.882Z,16.77
2022-12-04T22:09:17.536Z,16.15
2022-12-04T22:11:48.860Z,16.90
2022-12-04T22:14:25.152Z,14.65
2022-12-04T22:17:01.573Z,14.50
2022-12-04T22:19:29.144Z,13.55
2022-12-04T22:21:56.764Z,14.07
2022-12-04T22:24:24.423Z,14.20
2022-12-04T22:26:52.333Z,13.68
2022-12-04T22:29:49.232Z,12.95
2022-12-04T22:32:08.495Z,13.68
2022-12-04T22:34:36.127Z,13.20
2022-12-04T22:37:03.724Z,14.25
2022-12-04T22:39:36.134Z,13.95
2022-12-04T22:42:03.891Z,12.32
2022-12-04T22:44:31.391Z,13.70
2022-12-04T22:46:59.087Z,12.40
2022-12-04T22:49:26.832Z,13.07
2022-12-04T22:51:54.425Z,12.73
2022-12-04T22:54:21.970Z,12.32
2022-12-04T22:56:49.705Z,12.55
2022-12-04T22:59:17.347Z,12.55
2022-12-04T23:01:44.895Z,11.95
2022-12-04T23:04:12.415Z,12.00
2022-12-04T23:06:40.071Z,12.25
2022-12-04T23:09:09.261Z,11.00
2022-12-04T23:11:37.153Z,11.52
2022-12-04T23:14:07.133Z,11.75
2022-12-04T23:16:35.872Z,11.52
2022-12-04T23:19:03.762Z,11.55
2022-12-04T23:21:31.456Z,12.00
2022-12-04T23:23:59.118Z,12.70
2022-12-04T23:26:34.095Z,12.90
2022-12-04T23:29:01.904Z,13.20
2022-12-04T23:31:29.891Z,11.30
2022-12-04T23:33:57.512Z,12.15
2022-12-04T23:36:25.091Z,13.85
2022-12-04T23:38:52.667Z,12.98
2022-12-04T23:41:21.948Z,16.35
2022-12-04T23:43:50.290Z,12.52
2022-12-04T23:46:19.758Z,12.48
2022-12-04T23:48:48.239Z,12.23
2022-12-04T23:51:17.107Z,11.65
2022-12-04T23:53:44.901Z,12.75
2022-12-04T23:56:12.451Z,12.02
2022-12-04T23:58:40.372Z,12.38
